Map

Track Data

SID SEASON NUMBER BASIN SUBBASIN NAME ISO_TIME NATURE LAT LON WMO_WIND WMO_PRES WMO_AGENCY TRACK_TYPE DIST2LAND LANDFALL IFLAG USA_AGENCY USA_ATCF_ID USA_LAT USA_LON USA_RECORD USA_STATUS USA_WIND USA_PRES USA_SSHS USA_R34_NE USA_R34_SE USA_R34_SW USA_R34_NW USA_R50_NE USA_R50_SE USA_R50_SW USA_R50_NW USA_R64_NE USA_R64_SE USA_R64_SW USA_R64_NW USA_POCI USA_ROCI USA_RMW USA_EYE TOKYO_LAT TOKYO_LON TOKYO_GRADE TOKYO_WIND TOKYO_PRES TOKYO_R50_DIR TOKYO_R50_LONG TOKYO_R50_SHORT TOKYO_R30_DIR TOKYO_R30_LONG TOKYO_R30_SHORT TOKYO_LAND CMA_LAT CMA_LON CMA_CAT CMA_WIND CMA_PRES HKO_LAT HKO_LON HKO_CAT HKO_WIND HKO_PRES NEWDELHI_LAT NEWDELHI_LON NEWDELHI_GRADE NEWDELHI_WIND NEWDELHI_PRES NEWDELHI_CI NEWDELHI_DP NEWDELHI_POCI REUNION_LAT REUNION_LON REUNION_TYPE REUNION_WIND REUNION_PRES REUNION_TNUM REUNION_CI REUNION_RMW REUNION_R34_NE REUNION_R34_SE REUNION_R34_SW REUNION_R34_NW REUNION_R50_NE REUNION_R50_SE REUNION_R50_SW REUNION_R50_NW REUNION_R64_NE REUNION_R64_SE REUNION_R64_SW REUNION_R64_NW BOM_LAT BOM_LON BOM_TYPE BOM_WIND BOM_PRES BOM_TNUM BOM_CI BOM_RMW BOM_R34_NE BOM_R34_SE BOM_R34_SW BOM_R34_NW BOM_R50_NE BOM_R50_SE BOM_R50_SW BOM_R50_NW BOM_R64_NE BOM_R64_SE BOM_R64_SW BOM_R64_NW BOM_ROCI BOM_POCI BOM_EYE BOM_POS_METHOD BOM_PRES_METHOD NADI_LAT NADI_LON NADI_CAT NADI_WIND NADI_PRES WELLINGTON_LAT WELLINGTON_LON WELLINGTON_WIND WELLINGTON_PRES DS824_LAT DS824_LON DS824_STAGE DS824_WIND DS824_PRES TD9636_LAT TD9636_LON TD9636_STAGE TD9636_WIND TD9636_PRES TD9635_LAT TD9635_LON TD9635_WIND TD9635_PRES TD9635_ROCI NEUMANN_LAT NEUMANN_LON NEUMANN_CLASS NEUMANN_WIND NEUMANN_PRES MLC_LAT MLC_LON MLC_CLASS MLC_WIND MLC_PRES USA_GUST BOM_GUST BOM_GUST_PER REUNION_GUST REUNION_GUST_PER USA_SEAHGT USA_SEARAD_NE USA_SEARAD_SE USA_SEARAD_SW USA_SEARAD_NW STORM_SPEED STORM_DIR
1902313S15059 1903 50 SI MM NOT_NAMED 1902-11-09 00:00:00 TS -15.0000 59.1000 main 589 571 _________O____ -1 -15.0000 59.1000 TC 5 258
1902313S15059 1903 50 SI MM NOT_NAMED 1902-11-09 03:00:00 TS -15.0551 58.8326 main 571 567 _________P____ -1 -15.0551 58.8326 TC 5 258
1902313S15059 1903 50 SI MM NOT_NAMED 1902-11-09 06:00:00 TS -15.1000 58.6000 main 567 564 _________O____ -1 -15.1000 58.6000 TC 4 259
1902313S15059 1903 50 SI MM NOT_NAMED 1902-11-09 09:00:00 TS -15.1349 58.4149 main 564 550 _________P____ -1 -15.1349 58.4149 TC 4 255
1902313S15059 1903 50 SI MM NOT_NAMED 1902-11-09 12:00:00 TS -15.2000 58.2000 main 550 537 _________O____ -1 -15.2000 58.2000 TC 6 249
1902313S15059 1903 50 SI MM NOT_NAMED 1902-11-09 15:00:00 TS -15.3351 57.8651 main 537 514 _________P____ -1 -15.3351 57.8651 TC 7 246
1902313S15059 1903 50 SI MM NOT_NAMED 1902-11-09 18:00:00 TS -15.5000 57.5000 main 514 503 _________O____ -1 -15.5000 57.5000 TC 7 244
1902313S15059 1903 50 SI MM NOT_NAMED 1902-11-09 21:00:00 TS -15.6574 57.1925 main 493 484 _________P____ -1 -15.6574 57.1925 TC 7 243
1902313S15059 1903 50 SI MM NOT_NAMED 1902-11-10 00:00:00 TS -15.8000 56.9000 main 485 475 _________O____ -1 -15.8000 56.9000 TC 6 247
1902313S15059 1903 50 SI MM NOT_NAMED 1902-11-10 03:00:00 TS -15.9000 56.5999 main 479 473 _________P____ -1 -15.9000 56.5999 TC 6 251
1902313S15059 1903 50 SI MM NOT_NAMED 1902-11-10 06:00:00 TS -16.0000 56.3000 main 475 468 _________O____ -1 -16.0000 56.3000 TC 6 247
1902313S15059 1903 50 SI MM NOT_NAMED 1902-11-10 09:00:00 TS -16.1425 55.9925 main 474 461 _________P____ -1 -16.1425 55.9925 TC 7 242
1902313S15059 1903 50 SI MM NOT_NAMED 1902-11-10 12:00:00 TS -16.3000 55.7000 main 465 460 _________O____ -1 -16.3000 55.7000 TC 6 241
1902313S15059 1903 50 SI MM NOT_NAMED 1902-11-10 15:00:00 TS -16.4425 55.4349 main 469 455 _________P____ -1 -16.4425 55.4349 TC 6 238
1902313S15059 1903 50 SI MM NOT_NAMED 1902-11-10 18:00:00 TS -16.6000 55.2000 main 460 453 _________O____ -1 -16.6000 55.2000 TC 6 230
1902313S15059 1903 50 SI MM NOT_NAMED 1902-11-10 21:00:00 TS -16.8000 54.9925 main 453 448 _________P____ -1 -16.8000 54.9925 TC 6 224
1902313S15059 1903 50 SI MM NOT_NAMED 1902-11-11 00:00:00 TS -17.0000 54.8000 main 448 440 _________O____ -1 -17.0000 54.8000 TC 5 226
1902313S15059 1903 50 SI MM NOT_NAMED 1902-11-11 03:00:00 TS -17.1575 54.5999 main 431 422 _________P____ -1 -17.1575 54.5999 TC 5 232
1902313S15059 1903 50 SI MM NOT_NAMED 1902-11-11 06:00:00 TS -17.3000 54.4000 main 424 416 _________O____ -1 -17.3000 54.4000 TC 5 233
1902313S15059 1903 50 SI MM NOT_NAMED 1902-11-11 09:00:00 TS -17.4500 54.2000 main 418 400 _________P____ -1 -17.4500 54.2000 TC 5 232
1902313S15059 1903 50 SI MM NOT_NAMED 1902-11-11 12:00:00 TS -17.6000 54.0000 main 404 397 _________O____ -1 -17.6000 54.0000 TC 5 232
1902313S15059 1903 50 SI MM NOT_NAMED 1902-11-11 15:00:00 TS -17.7500 53.8000 main 401 385 _________P____ -1 -17.7500 53.8000 TC 5 232
1902313S15059 1903 50 SI MM NOT_NAMED 1902-11-11 18:00:00 TS -17.9000 53.6000 main 389 384 _________O____ -1 -17.9000 53.6000 TC 5 232
1902313S15059 1903 50 SI MM NOT_NAMED 1902-11-11 21:00:00 TS -18.0500 53.4000 main 390 376 _________P____ -1 -18.0500 53.4000 TC 5 232
1902313S15059 1903 50 SI MM NOT_NAMED 1902-11-12 00:00:00 TS -18.2000 53.2000 main 382 376 _________O____ -1 -18.2000 53.2000 TC 5 231
1902313S15059 1903 50 SI MM NOT_NAMED 1902-11-12 03:00:00 TS -18.3575 53.0000 main 377 360 _________P____ -1 -18.3575 53.0000 TC 5 232
1902313S15059 1903 50 SI MM NOT_NAMED 1902-11-12 06:00:00 TS -18.5000 52.8000 main 360 340 _________O____ -1 -18.5000 52.8000 TC 5 238
1902313S15059 1903 50 SI MM NOT_NAMED 1902-11-12 09:00:00 TS -18.6000 52.5924 main 340 321 _________P____ -1 -18.6000 52.5924 TC 4 242
1902313S15059 1903 50 SI MM NOT_NAMED 1902-11-12 12:00:00 TS -18.7000 52.4000 main 321 310 _________O____ -1 -18.7000 52.4000 TC 4 234
1902313S15059 1903 50 SI MM NOT_NAMED 1902-11-12 15:00:00 TS -18.8425 52.2425 main 302 295 _________P____ -1 -18.8425 52.2425 TC 4 223
1902313S15059 1903 50 SI MM NOT_NAMED 1902-11-12 18:00:00 TS -19.0000 52.1000 main 298 291 _________O____ -1 -19.0000 52.1000 TC 4 221
1902313S15059 1903 50 SI MM NOT_NAMED 1902-11-12 21:00:00 TS -19.1525 51.9526 main 295 281 _________P____ -1 -19.1525 51.9526 TC 4 223
1902313S15059 1903 50 SI MM NOT_NAMED 1902-11-13 00:00:00 TS -19.3000 51.8000 main 281 _________O____ -1 -19.3000 51.8000 TC 4 224

About IBTrACS Database

This database is a web-friendly format of International Best Track Archive for Climate Stewardship (IBTrACS), a global best track data archive curated by NOAA dating back to 1842.

Updated: 2021-10-08